Time;durP1;ratioP1;P1;durP2;ratioP2;P2;SDS_P1;SDS_P2;PMS_P1;PMS_P2;Temp;Humidity;BMP_temperature;BMP_pressure;BME280_temperature;BME280_humidity;BME280_pressure;Samples;Min_cycle;Max_cycle;Signal;HPM_P1;HPM_P2
2022/09/28 05:57:14;;;;;;;1.90;1.80;;;;;;;;;;6236949;22;19961;-91
2022/09/28 05:59:39;;;;;;;2.75;1.98;;;;;;;;;;6269480;22;20335;-86
2022/09/28 06:02:06;;;;;;;2.38;2.00;;;;;;;;;;6246387;23;20004;-86
2022/09/28 06:04:31;;;;;;;2.00;1.80;;;;;;;;;;6246393;23;20075;-87
2022/09/28 09:40:34;;;;;;;3.60;2.00;;;;;;;;;;6287031;22;20031;-83
2022/09/28 09:43:24;;;;;;;1.88;1.70;;;;;;;;;;6277711;22;20027;-86
2022/09/28 09:46:15;;;;;;;2.28;1.60;;;;;;;;;;6277201;22;20030;-87
2022/09/28 09:49:19;;;;;;;2.13;1.80;;;;;;;;;;6247903;22;20372;-89
2022/09/28 09:51:59;;;;;;;2.58;1.60;;;;;;;;;;6246207;23;20000;-83
2022/09/28 09:54:27;;;;;;;2.38;1.90;;;;;;;;;;6246377;23;20008;-89
2022/09/28 09:56:55;;;;;;;1.80;1.60;;;;;;;;;;6246594;22;20058;-89
2022/09/28 09:59:26;;;;;;;2.72;1.75;;;;;;;;;;6246475;23;20004;-87
2022/09/28 10:01:54;;;;;;;1.90;1.70;;;;;;;;;;6247635;23;20007;-87
2022/09/28 10:04:26;;;;;;;2.17;1.73;;;;;;;;;;6246276;23;20058;-88
2022/09/28 10:07:00;;;;;;;2.15;1.80;;;;;;;;;;6246330;22;20016;-86
2022/09/28 10:09:29;;;;;;;2.60;1.90;;;;;;;;;;6221178;23;20008;-88
2022/09/28 10:11:55;;;;;;;2.65;2.45;;;;;;;;;;6248562;23;20004;-89
2022/09/28 10:14:23;;;;;;;2.35;2.15;;;;;;;;;;6248787;23;20062;-89
2022/09/28 10:16:52;;;;;;;2.65;2.05;;;;;;;;;;6248674;22;20049;-88
2022/09/28 10:19:20;;;;;;;2.45;2.10;;;;;;;;;;6248448;23;20000;-89
2022/09/28 10:21:52;;;;;;;3.30;1.80;;;;;;;;;;6249334;23;20000;-88
2022/09/28 10:24:48;;;;;;;3.20;2.70;;;;;;;;;;6248153;23;20015;-86
2022/09/28 10:27:17;;;;;;;3.28;2.70;;;;;;;;;;6248239;22;20000;-88
2022/09/28 10:29:56;;;;;;;5.00;2.47;;;;;;;;;;6248154;23;20000;-85
2022/09/28 10:32:35;;;;;;;2.45;2.25;;;;;;;;;;6248278;23;20000;-84
2022/09/28 10:35:25;;;;;;;2.67;2.43;;;;;;;;;;6248490;23;20008;-87
2022/09/28 10:38:27;;;;;;;5.47;4.18;;;;;;;;;;6247892;22;20233;-84
2022/09/28 10:40:57;;;;;;;2.33;2.05;;;;;;;;;;6216052;23;20012;-88
2022/09/28 10:43:37;;;;;;;2.85;2.05;;;;;;;;;;6247510;23;20008;-88
2022/09/28 10:46:22;;;;;;;4.55;2.50;;;;;;;;;;6248136;23;20007;-88
2022/09/28 10:49:01;;;;;;;4.13;2.50;;;;;;;;;;6248101;23;20023;-83
2022/09/28 10:51:57;;;;;;;2.40;1.90;;;;;;;;;;6248044;23;20010;-86
2022/09/28 10:54:27;;;;;;;2.50;2.10;;;;;;;;;;6247877;23;20000;-85
2022/09/28 10:56:54;;;;;;;2.53;2.15;;;;;;;;;;6247617;22;20066;-84
2022/09/28 10:59:36;;;;;;;4.40;2.20;;;;;;;;;;6247715;23;20091;-78
2022/09/28 11:02:27;;;;;;;3.05;2.00;;;;;;;;;;6247736;23;20075;-83
2022/09/28 11:04:58;;;;;;;2.85;2.10;;;;;;;;;;6220968;23;20064;-80
2022/09/28 11:07:27;;;;;;;3.47;2.00;;;;;;;;;;6247416;22;20419;-83
2022/09/28 11:09:54;;;;;;;2.20;2.00;;;;;;;;;;6247811;23;20000;-80
2022/09/28 11:12:22;;;;;;;2.33;2.13;;;;;;;;;;6247852;23;20027;-81
2022/09/28 11:14:51;;;;;;;2.90;1.92;;;;;;;;;;6247794;23;20008;-80
2022/09/28 11:17:37;;;;;;;2.47;2.10;;;;;;;;;;6247487;22;20000;-80
2022/09/28 11:20:24;;;;;;;2.08;1.88;;;;;;;;;;6246809;23;20004;-83
2022/09/28 11:22:55;;;;;;;3.53;2.60;;;;;;;;;;6247421;23;20030;-83
2022/09/28 11:25:23;;;;;;;2.88;2.58;;;;;;;;;;6247145;23;20087;-80
2022/09/28 11:27:52;;;;;;;4.43;2.25;;;;;;;;;;6247350;22;20062;-80
2022/09/28 11:30:27;;;;;;;2.20;2.00;;;;;;;;;;6247348;23;20083;-82
2022/09/28 11:32:59;;;;;;;2.67;2.00;;;;;;;;;;6247844;23;20037;-86
2022/09/28 11:36:02;;;;;;;3.05;2.20;;;;;;;;;;6247623;23;20046;-85
2022/09/28 11:38:34;;;;;;;3.13;2.55;;;;;;;;;;6247379;22;20004;-86
2022/09/28 11:41:00;;;;;;;2.45;2.25;;;;;;;;;;6247240;23;20095;-84
2022/09/28 11:43:28;;;;;;;3.20;2.33;;;;;;;;;;6247330;23;20046;-84
2022/09/28 11:46:23;;;;;;;3.80;2.40;;;;;;;;;;6247647;23;20362;-85
2022/09/28 16:11:22;;;;;;;5.80;2.13;;;;;;;;;;6294350;22;20047;-86
